sensor_id;sensor_type;location;lat;lon;timestamp;P1;durP1;ratioP1;P2;durP2;ratioP2
5722;SDS011;2886;49.722;8.612;2022-12-18T00:00:31;21.73;;;8.60;;
5722;SDS011;2886;49.722;8.612;2022-12-18T00:02:56;18.03;;;8.57;;
5722;SDS011;2886;49.722;8.612;2022-12-18T00:05:22;22.20;;;10.50;;
5722;SDS011;2886;49.722;8.612;2022-12-18T00:07:48;24.83;;;8.70;;
5722;SDS011;2886;49.722;8.612;2022-12-18T00:10:14;19.43;;;9.47;;
5722;SDS011;2886;49.722;8.612;2022-12-18T00:12:39;22.93;;;9.67;;
5722;SDS011;2886;49.722;8.612;2022-12-18T00:15:05;22.40;;;8.03;;
5722;SDS011;2886;49.722;8.612;2022-12-18T00:17:31;22.43;;;8.50;;
5722;SDS011;2886;49.722;8.612;2022-12-18T00:19:56;15.90;;;8.60;;
5722;SDS011;2886;49.722;8.612;2022-12-18T00:22:22;18.43;;;8.03;;
5722;SDS011;2886;49.722;8.612;2022-12-18T00:24:47;14.10;;;8.03;;
5722;SDS011;2886;49.722;8.612;2022-12-18T00:27:13;16.47;;;8.43;;
5722;SDS011;2886;49.722;8.612;2022-12-18T00:29:38;19.50;;;10.10;;
5722;SDS011;2886;49.722;8.612;2022-12-18T00:32:04;21.37;;;8.37;;
5722;SDS011;2886;49.722;8.612;2022-12-18T00:34:30;17.17;;;7.83;;
5722;SDS011;2886;49.722;8.612;2022-12-18T00:36:55;17.03;;;8.73;;
5722;SDS011;2886;49.722;8.612;2022-12-18T00:39:21;23.53;;;8.87;;
5722;SDS011;2886;49.722;8.612;2022-12-18T00:41:46;21.33;;;9.63;;
5722;SDS011;2886;49.722;8.612;2022-12-18T00:44:30;17.87;;;8.00;;
5722;SDS011;2886;49.722;8.612;2022-12-18T00:46:56;21.80;;;9.73;;
5722;SDS011;2886;49.722;8.612;2022-12-18T00:49:21;22.10;;;9.00;;
5722;SDS011;2886;49.722;8.612;2022-12-18T00:51:47;16.83;;;8.17;;
5722;SDS011;2886;49.722;8.612;2022-12-18T00:54:13;20.63;;;10.00;;
5722;SDS011;2886;49.722;8.612;2022-12-18T00:56:39;17.80;;;7.47;;
5722;SDS011;2886;49.722;8.612;2022-12-18T00:59:04;22.70;;;9.60;;
5722;SDS011;2886;49.722;8.612;2022-12-18T01:01:30;15.23;;;8.57;;
5722;SDS011;2886;49.722;8.612;2022-12-18T01:03:57;18.23;;;8.90;;
5722;SDS011;2886;49.722;8.612;2022-12-18T01:06:24;22.60;;;9.07;;
5722;SDS011;2886;49.722;8.612;2022-12-18T01:08:49;20.10;;;10.83;;
5722;SDS011;2886;49.722;8.612;2022-12-18T01:11:16;20.87;;;9.17;;
5722;SDS011;2886;49.722;8.612;2022-12-18T01:13:43;22.70;;;8.87;;
5722;SDS011;2886;49.722;8.612;2022-12-18T01:16:10;16.97;;;7.87;;
5722;SDS011;2886;49.722;8.612;2022-12-18T01:18:37;20.07;;;9.87;;
5722;SDS011;2886;49.722;8.612;2022-12-18T01:21:12;13.80;;;7.60;;
5722;SDS011;2886;49.722;8.612;2022-12-18T01:23:40;18.80;;;7.37;;
5722;SDS011;2886;49.722;8.612;2022-12-18T01:26:10;13.47;;;7.90;;
5722;SDS011;2886;49.722;8.612;2022-12-18T01:28:37;20.43;;;7.43;;
5722;SDS011;2886;49.722;8.612;2022-12-18T01:31:10;18.73;;;8.50;;
5722;SDS011;2886;49.722;8.612;2022-12-18T01:33:41;27.07;;;9.00;;
5722;SDS011;2886;49.722;8.612;2022-12-18T01:36:07;17.87;;;8.67;;
5722;SDS011;2886;49.722;8.612;2022-12-18T01:38:33;15.60;;;7.00;;
5722;SDS011;2886;49.722;8.612;2022-12-18T01:40:59;16.33;;;7.77;;
5722;SDS011;2886;49.722;8.612;2022-12-18T01:46:26;19.23;;;8.00;;
5722;SDS011;2886;49.722;8.612;2022-12-18T01:48:59;22.27;;;9.60;;
5722;SDS011;2886;49.722;8.612;2022-12-18T01:51:26;20.27;;;7.60;;
5722;SDS011;2886;49.722;8.612;2022-12-18T01:53:54;25.00;;;8.47;;
5722;SDS011;2886;49.722;8.612;2022-12-18T01:56:20;23.03;;;9.17;;
5722;SDS011;2886;49.722;8.612;2022-12-18T01:58:54;23.50;;;9.70;;
5722;SDS011;2886;49.722;8.612;2022-12-18T02:01:30;20.70;;;10.03;;
5722;SDS011;2886;49.722;8.612;2022-12-18T02:04:13;20.63;;;9.33;;
5722;SDS011;2886;49.722;8.612;2022-12-18T02:06:55;20.47;;;9.00;;
5722;SDS011;2886;49.722;8.612;2022-12-18T02:09:48;26.73;;;9.83;;
5722;SDS011;2886;49.722;8.612;2022-12-18T02:12:22;17.53;;;7.63;;
5722;SDS011;2886;49.722;8.612;2022-12-18T02:14:58;21.00;;;10.03;;
5722;SDS011;2886;49.722;8.612;2022-12-18T02:17:36;19.47;;;7.47;;
5722;SDS011;2886;49.722;8.612;2022-12-18T02:20:28;17.43;;;8.50;;
5722;SDS011;2886;49.722;8.612;2022-12-18T02:28:36;15.93;;;8.80;;
5722;SDS011;2886;49.722;8.612;2022-12-18T02:31:19;12.47;;;8.07;;
5722;SDS011;2886;49.722;8.612;2022-12-18T02:33:49;17.67;;;8.83;;
5722;SDS011;2886;49.722;8.612;2022-12-18T02:36:17;22.80;;;8.73;;
5722;SDS011;2886;49.722;8.612;2022-12-18T02:38:45;20.80;;;9.40;;
5722;SDS011;2886;49.722;8.612;2022-12-18T02:41:11;18.93;;;9.53;;
5722;SDS011;2886;49.722;8.612;2022-12-18T02:43:39;14.90;;;7.80;;
5722;SDS011;2886;49.722;8.612;2022-12-18T02:52:07;20.17;;;7.80;;
5722;SDS011;2886;49.722;8.612;2022-12-18T02:57:47;13.70;;;6.57;;
5722;SDS011;2886;49.722;8.612;2022-12-18T03:00:20;12.57;;;6.47;;
5722;SDS011;2886;49.722;8.612;2022-12-18T03:02:57;17.00;;;6.53;;
5722;SDS011;2886;49.722;8.612;2022-12-18T03:05:35;8.87;;;5.27;;
5722;SDS011;2886;49.722;8.612;2022-12-18T03:08:15;12.43;;;6.50;;
5722;SDS011;2886;49.722;8.612;2022-12-18T03:10:58;15.53;;;6.10;;
5722;SDS011;2886;49.722;8.612;2022-12-18T03:13:43;17.07;;;7.60;;
5722;SDS011;2886;49.722;8.612;2022-12-18T03:16:22;12.77;;;7.40;;
5722;SDS011;2886;49.722;8.612;2022-12-18T03:21:22;13.20;;;7.10;;
5722;SDS011;2886;49.722;8.612;2022-12-18T03:23:51;17.77;;;6.93;;
5722;SDS011;2886;49.722;8.612;2022-12-18T03:26:19;23.03;;;8.70;;
5722;SDS011;2886;49.722;8.612;2022-12-18T03:28:50;17.80;;;7.73;;
5722;SDS011;2886;49.722;8.612;2022-12-18T03:31:19;19.80;;;6.73;;
5722;SDS011;2886;49.722;8.612;2022-12-18T03:33:51;15.60;;;7.10;;
5722;SDS011;2886;49.722;8.612;2022-12-18T03:36:22;16.30;;;7.13;;
5722;SDS011;2886;49.722;8.612;2022-12-18T03:38:51;14.77;;;8.10;;
5722;SDS011;2886;49.722;8.612;2022-12-18T03:41:33;22.57;;;7.00;;
5722;SDS011;2886;49.722;8.612;2022-12-18T03:52:49;17.67;;;7.77;;
5722;SDS011;2886;49.722;8.612;2022-12-18T03:55:20;15.67;;;7.60;;
5722;SDS011;2886;49.722;8.612;2022-12-18T03:57:48;12.47;;;7.40;;
5722;SDS011;2886;49.722;8.612;2022-12-18T04:00:15;18.70;;;7.37;;
5722;SDS011;2886;49.722;8.612;2022-12-18T04:02:44;17.30;;;7.77;;
5722;SDS011;2886;49.722;8.612;2022-12-18T04:05:16;21.83;;;7.17;;
5722;SDS011;2886;49.722;8.612;2022-12-18T04:07:42;19.10;;;7.67;;
5722;SDS011;2886;49.722;8.612;2022-12-18T04:10:10;20.03;;;8.23;;
5722;SDS011;2886;49.722;8.612;2022-12-18T04:12:37;12.70;;;7.80;;
5722;SDS011;2886;49.722;8.612;2022-12-18T04:15:03;16.30;;;7.73;;
5722;SDS011;2886;49.722;8.612;2022-12-18T04:17:29;16.93;;;7.50;;
5722;SDS011;2886;49.722;8.612;2022-12-18T04:19:55;18.97;;;7.10;;
5722;SDS011;2886;49.722;8.612;2022-12-18T04:22:20;19.00;;;7.20;;
5722;SDS011;2886;49.722;8.612;2022-12-18T04:24:46;13.87;;;7.83;;
5722;SDS011;2886;49.722;8.612;2022-12-18T04:27:12;10.40;;;5.13;;
5722;SDS011;2886;49.722;8.612;2022-12-18T04:29:37;16.40;;;6.00;;
5722;SDS011;2886;49.722;8.612;2022-12-18T04:32:03;16.33;;;8.27;;
5722;SDS011;2886;49.722;8.612;2022-12-18T04:34:29;14.60;;;7.07;;
5722;SDS011;2886;49.722;8.612;2022-12-18T04:36:54;15.27;;;6.17;;
5722;SDS011;2886;49.722;8.612;2022-12-18T04:39:20;14.83;;;6.87;;
5722;SDS011;2886;49.722;8.612;2022-12-18T04:41:45;11.80;;;6.97;;
5722;SDS011;2886;49.722;8.612;2022-12-18T04:44:11;17.70;;;6.87;;
5722;SDS011;2886;49.722;8.612;2022-12-18T04:46:37;17.80;;;7.50;;
5722;SDS011;2886;49.722;8.612;2022-12-18T04:49:02;15.73;;;6.57;;
5722;SDS011;2886;49.722;8.612;2022-12-18T04:51:28;15.00;;;7.33;;
5722;SDS011;2886;49.722;8.612;2022-12-18T04:53:54;13.53;;;6.87;;
5722;SDS011;2886;49.722;8.612;2022-12-18T04:56:19;12.03;;;7.13;;
5722;SDS011;2886;49.722;8.612;2022-12-18T04:58:45;30.30;;;6.50;;
5722;SDS011;2886;49.722;8.612;2022-12-18T05:01:11;15.90;;;7.10;;
5722;SDS011;2886;49.722;8.612;2022-12-18T05:03:39;12.47;;;5.17;;
5722;SDS011;2886;49.722;8.612;2022-12-18T05:06:05;28.03;;;8.43;;
5722;SDS011;2886;49.722;8.612;2022-12-18T05:08:31;22.17;;;7.03;;
5722;SDS011;2886;49.722;8.612;2022-12-18T05:11:04;20.83;;;6.80;;
5722;SDS011;2886;49.722;8.612;2022-12-18T05:13:32;6.87;;;5.73;;
5722;SDS011;2886;49.722;8.612;2022-12-18T05:15:58;18.00;;;7.83;;
5722;SDS011;2886;49.722;8.612;2022-12-18T05:18:24;21.60;;;6.50;;
5722;SDS011;2886;49.722;8.612;2022-12-18T05:20:50;15.07;;;7.80;;
5722;SDS011;2886;49.722;8.612;2022-12-18T05:23:17;10.53;;;6.27;;
5722;SDS011;2886;49.722;8.612;2022-12-18T05:25:46;13.20;;;6.97;;
5722;SDS011;2886;49.722;8.612;2022-12-18T05:28:17;9.97;;;6.47;;
5722;SDS011;2886;49.722;8.612;2022-12-18T05:30:47;14.60;;;8.37;;
5722;SDS011;2886;49.722;8.612;2022-12-18T05:33:14;14.33;;;6.37;;
5722;SDS011;2886;49.722;8.612;2022-12-18T05:35:40;14.93;;;7.30;;
5722;SDS011;2886;49.722;8.612;2022-12-18T05:38:05;13.60;;;5.90;;
5722;SDS011;2886;49.722;8.612;2022-12-18T05:40:31;17.70;;;8.17;;
5722;SDS011;2886;49.722;8.612;2022-12-18T05:42:56;17.83;;;7.37;;
5722;SDS011;2886;49.722;8.612;2022-12-18T05:45:22;18.40;;;8.33;;
5722;SDS011;2886;49.722;8.612;2022-12-18T05:47:47;19.60;;;8.07;;
5722;SDS011;2886;49.722;8.612;2022-12-18T05:50:13;24.37;;;9.60;;
5722;SDS011;2886;49.722;8.612;2022-12-18T05:52:39;13.23;;;7.67;;
5722;SDS011;2886;49.722;8.612;2022-12-18T05:55:04;20.60;;;9.10;;
5722;SDS011;2886;49.722;8.612;2022-12-18T05:57:30;20.67;;;10.10;;
5722;SDS011;2886;49.722;8.612;2022-12-18T05:59:56;25.57;;;8.00;;
5722;SDS011;2886;49.722;8.612;2022-12-18T06:02:21;12.70;;;6.03;;
5722;SDS011;2886;49.722;8.612;2022-12-18T06:04:47;18.37;;;7.77;;
5722;SDS011;2886;49.722;8.612;2022-12-18T06:07:12;16.50;;;8.07;;
5722;SDS011;2886;49.722;8.612;2022-12-18T06:09:39;14.27;;;6.73;;
5722;SDS011;2886;49.722;8.612;2022-12-18T06:12:05;27.23;;;9.73;;
5722;SDS011;2886;49.722;8.612;2022-12-18T06:14:31;43.57;;;11.33;;
5722;SDS011;2886;49.722;8.612;2022-12-18T06:16:56;13.47;;;6.37;;
5722;SDS011;2886;49.722;8.612;2022-12-18T06:19:22;13.70;;;7.27;;
5722;SDS011;2886;49.722;8.612;2022-12-18T06:21:48;13.23;;;7.40;;
5722;SDS011;2886;49.722;8.612;2022-12-18T06:24:14;22.23;;;8.57;;
5722;SDS011;2886;49.722;8.612;2022-12-18T06:26:39;16.43;;;7.83;;
5722;SDS011;2886;49.722;8.612;2022-12-18T06:29:05;22.37;;;8.50;;
5722;SDS011;2886;49.722;8.612;2022-12-18T06:31:31;15.20;;;6.40;;
5722;SDS011;2886;49.722;8.612;2022-12-18T06:33:57;11.37;;;7.00;;
5722;SDS011;2886;49.722;8.612;2022-12-18T06:36:23;21.97;;;7.63;;
5722;SDS011;2886;49.722;8.612;2022-12-18T06:38:48;24.57;;;10.20;;
5722;SDS011;2886;49.722;8.612;2022-12-18T06:41:18;15.80;;;7.27;;
5722;SDS011;2886;49.722;8.612;2022-12-18T06:43:45;15.17;;;8.57;;
5722;SDS011;2886;49.722;8.612;2022-12-18T06:46:10;24.90;;;9.53;;
5722;SDS011;2886;49.722;8.612;2022-12-18T06:48:36;18.93;;;9.27;;
5722;SDS011;2886;49.722;8.612;2022-12-18T06:51:02;18.83;;;8.17;;
5722;SDS011;2886;49.722;8.612;2022-12-18T06:53:28;16.90;;;6.83;;
5722;SDS011;2886;49.722;8.612;2022-12-18T06:56:01;17.80;;;8.73;;
5722;SDS011;2886;49.722;8.612;2022-12-18T06:58:31;21.07;;;8.53;;
5722;SDS011;2886;49.722;8.612;2022-12-18T07:01:00;15.10;;;7.80;;
5722;SDS011;2886;49.722;8.612;2022-12-18T07:03:27;16.73;;;9.00;;
5722;SDS011;2886;49.722;8.612;2022-12-18T07:05:53;18.50;;;7.80;;
5722;SDS011;2886;49.722;8.612;2022-12-18T07:08:18;15.10;;;6.83;;
5722;SDS011;2886;49.722;8.612;2022-12-18T07:10:44;17.00;;;7.37;;
5722;SDS011;2886;49.722;8.612;2022-12-18T07:13:09;18.47;;;7.93;;
5722;SDS011;2886;49.722;8.612;2022-12-18T07:15:36;20.40;;;8.13;;
5722;SDS011;2886;49.722;8.612;2022-12-18T07:18:02;15.47;;;8.40;;
5722;SDS011;2886;49.722;8.612;2022-12-18T07:20:28;18.13;;;6.60;;
5722;SDS011;2886;49.722;8.612;2022-12-18T07:22:54;19.83;;;8.73;;
5722;SDS011;2886;49.722;8.612;2022-12-18T07:25:19;18.40;;;7.53;;
5722;SDS011;2886;49.722;8.612;2022-12-18T07:27:45;18.63;;;7.73;;
5722;SDS011;2886;49.722;8.612;2022-12-18T07:30:11;12.57;;;7.20;;
5722;SDS011;2886;49.722;8.612;2022-12-18T07:32:36;9.90;;;6.30;;
5722;SDS011;2886;49.722;8.612;2022-12-18T07:35:02;14.20;;;7.40;;
5722;SDS011;2886;49.722;8.612;2022-12-18T07:37:28;21.20;;;8.60;;
5722;SDS011;2886;49.722;8.612;2022-12-18T07:39:54;15.30;;;7.93;;
5722;SDS011;2886;49.722;8.612;2022-12-18T07:42:19;12.07;;;7.63;;
5722;SDS011;2886;49.722;8.612;2022-12-18T07:44:57;22.40;;;8.00;;
5722;SDS011;2886;49.722;8.612;2022-12-18T07:47:23;22.00;;;7.20;;
5722;SDS011;2886;49.722;8.612;2022-12-18T07:49:49;23.17;;;7.93;;
5722;SDS011;2886;49.722;8.612;2022-12-18T07:54:45;26.47;;;9.07;;
5722;SDS011;2886;49.722;8.612;2022-12-18T07:57:10;18.70;;;7.97;;
5722;SDS011;2886;49.722;8.612;2022-12-18T07:59:36;17.17;;;7.90;;
5722;SDS011;2886;49.722;8.612;2022-12-18T08:02:02;15.23;;;8.53;;
5722;SDS011;2886;49.722;8.612;2022-12-18T08:04:28;32.80;;;8.47;;
5722;SDS011;2886;49.722;8.612;2022-12-18T08:06:53;16.90;;;7.63;;
5722;SDS011;2886;49.722;8.612;2022-12-18T08:09:19;11.90;;;7.17;;
5722;SDS011;2886;49.722;8.612;2022-12-18T08:11:45;14.03;;;6.60;;
5722;SDS011;2886;49.722;8.612;2022-12-18T08:14:10;21.73;;;8.30;;
5722;SDS011;2886;49.722;8.612;2022-12-18T08:16:36;16.07;;;6.97;;
5722;SDS011;2886;49.722;8.612;2022-12-18T08:19:02;17.03;;;7.63;;
5722;SDS011;2886;49.722;8.612;2022-12-18T08:21:29;15.97;;;7.30;;
5722;SDS011;2886;49.722;8.612;2022-12-18T08:23:56;15.80;;;7.80;;
5722;SDS011;2886;49.722;8.612;2022-12-18T08:26:24;14.63;;;7.30;;
5722;SDS011;2886;49.722;8.612;2022-12-18T08:28:52;20.07;;;8.20;;
5722;SDS011;2886;49.722;8.612;2022-12-18T08:31:20;20.90;;;9.37;;
5722;SDS011;2886;49.722;8.612;2022-12-18T08:33:48;16.93;;;8.27;;
5722;SDS011;2886;49.722;8.612;2022-12-18T08:36:15;17.47;;;8.40;;
5722;SDS011;2886;49.722;8.612;2022-12-18T08:38:41;22.00;;;10.27;;
5722;SDS011;2886;49.722;8.612;2022-12-18T08:41:07;18.10;;;7.87;;
5722;SDS011;2886;49.722;8.612;2022-12-18T08:43:36;19.57;;;8.47;;
5722;SDS011;2886;49.722;8.612;2022-12-18T08:46:21;19.53;;;7.93;;
5722;SDS011;2886;49.722;8.612;2022-12-18T08:48:50;16.03;;;9.53;;
5722;SDS011;2886;49.722;8.612;2022-12-18T08:51:16;16.43;;;9.10;;
5722;SDS011;2886;49.722;8.612;2022-12-18T08:53:42;20.33;;;9.70;;
5722;SDS011;2886;49.722;8.612;2022-12-18T08:56:09;19.43;;;7.63;;
5722;SDS011;2886;49.722;8.612;2022-12-18T08:58:35;26.73;;;11.00;;
5722;SDS011;2886;49.722;8.612;2022-12-18T09:01:05;24.60;;;7.63;;
5722;SDS011;2886;49.722;8.612;2022-12-18T09:03:33;20.03;;;10.57;;
5722;SDS011;2886;49.722;8.612;2022-12-18T09:06:00;16.07;;;7.60;;
5722;SDS011;2886;49.722;8.612;2022-12-18T09:08:27;23.77;;;8.60;;
5722;SDS011;2886;49.722;8.612;2022-12-18T09:10:55;18.60;;;8.33;;
5722;SDS011;2886;49.722;8.612;2022-12-18T09:13:20;18.17;;;9.53;;
5722;SDS011;2886;49.722;8.612;2022-12-18T09:15:48;15.30;;;7.30;;
5722;SDS011;2886;49.722;8.612;2022-12-18T09:18:15;20.77;;;9.47;;
5722;SDS011;2886;49.722;8.612;2022-12-18T09:20:42;25.10;;;10.43;;
5722;SDS011;2886;49.722;8.612;2022-12-18T09:23:08;17.97;;;9.57;;
5722;SDS011;2886;49.722;8.612;2022-12-18T09:25:34;16.40;;;9.30;;
5722;SDS011;2886;49.722;8.612;2022-12-18T09:28:02;15.03;;;7.60;;
5722;SDS011;2886;49.722;8.612;2022-12-18T09:30:29;23.67;;;8.20;;
5722;SDS011;2886;49.722;8.612;2022-12-18T09:32:54;21.20;;;11.23;;
5722;SDS011;2886;49.722;8.612;2022-12-18T09:35:20;16.43;;;9.50;;
5722;SDS011;2886;49.722;8.612;2022-12-18T09:37:46;19.10;;;8.67;;
5722;SDS011;2886;49.722;8.612;2022-12-18T09:40:23;23.63;;;11.20;;
5722;SDS011;2886;49.722;8.612;2022-12-18T09:42:54;28.90;;;10.77;;
5722;SDS011;2886;49.722;8.612;2022-12-18T09:45:27;26.80;;;10.10;;
5722;SDS011;2886;49.722;8.612;2022-12-18T09:48:03;23.30;;;10.23;;
5722;SDS011;2886;49.722;8.612;2022-12-18T09:50:35;23.30;;;10.27;;
5722;SDS011;2886;49.722;8.612;2022-12-18T09:53:05;25.27;;;11.63;;
5722;SDS011;2886;49.722;8.612;2022-12-18T09:55:38;18.93;;;10.13;;
5722;SDS011;2886;49.722;8.612;2022-12-18T09:58:13;25.43;;;11.50;;
5722;SDS011;2886;49.722;8.612;2022-12-18T10:01:02;22.83;;;10.70;;
5722;SDS011;2886;49.722;8.612;2022-12-18T10:03:34;27.73;;;13.50;;
5722;SDS011;2886;49.722;8.612;2022-12-18T10:11:34;30.93;;;13.53;;
5722;SDS011;2886;49.722;8.612;2022-12-18T10:14:11;30.03;;;12.37;;
5722;SDS011;2886;49.722;8.612;2022-12-18T10:25:04;32.70;;;13.67;;
5722;SDS011;2886;49.722;8.612;2022-12-18T10:27:40;30.00;;;13.60;;
5722;SDS011;2886;49.722;8.612;2022-12-18T10:30:13;26.10;;;12.87;;
5722;SDS011;2886;49.722;8.612;2022-12-18T10:32:41;33.57;;;13.13;;
5722;SDS011;2886;49.722;8.612;2022-12-18T10:35:08;31.40;;;14.10;;
5722;SDS011;2886;49.722;8.612;2022-12-18T10:37:58;29.77;;;13.87;;
5722;SDS011;2886;49.722;8.612;2022-12-18T10:40:29;29.40;;;11.83;;
5722;SDS011;2886;49.722;8.612;2022-12-18T10:43:13;29.23;;;12.77;;
5722;SDS011;2886;49.722;8.612;2022-12-18T10:45:41;33.47;;;15.13;;
5722;SDS011;2886;49.722;8.612;2022-12-18T10:48:22;34.73;;;14.30;;
5722;SDS011;2886;49.722;8.612;2022-12-18T10:50:49;25.30;;;11.03;;
5722;SDS011;2886;49.722;8.612;2022-12-18T10:53:35;29.40;;;11.97;;
5722;SDS011;2886;49.722;8.612;2022-12-18T10:56:02;25.93;;;12.80;;
5722;SDS011;2886;49.722;8.612;2022-12-18T10:58:37;30.00;;;12.63;;
5722;SDS011;2886;49.722;8.612;2022-12-18T11:01:13;29.83;;;12.03;;
5722;SDS011;2886;49.722;8.612;2022-12-18T11:03:45;30.13;;;12.40;;
5722;SDS011;2886;49.722;8.612;2022-12-18T11:06:15;30.63;;;12.80;;
5722;SDS011;2886;49.722;8.612;2022-12-18T11:08:43;33.27;;;13.90;;
5722;SDS011;2886;49.722;8.612;2022-12-18T11:11:16;30.40;;;12.70;;
5722;SDS011;2886;49.722;8.612;2022-12-18T11:14:06;29.90;;;12.90;;
5722;SDS011;2886;49.722;8.612;2022-12-18T11:16:43;32.80;;;13.70;;
5722;SDS011;2886;49.722;8.612;2022-12-18T11:19:21;25.00;;;12.33;;
5722;SDS011;2886;49.722;8.612;2022-12-18T11:21:51;32.07;;;12.27;;
5722;SDS011;2886;49.722;8.612;2022-12-18T11:24:27;28.30;;;11.80;;
5722;SDS011;2886;49.722;8.612;2022-12-18T11:26:56;52.43;;;23.00;;
5722;SDS011;2886;49.722;8.612;2022-12-18T11:29:31;60.27;;;23.70;;
5722;SDS011;2886;49.722;8.612;2022-12-18T11:35:15;29.40;;;13.00;;
5722;SDS011;2886;49.722;8.612;2022-12-18T11:37:49;28.37;;;13.60;;
5722;SDS011;2886;49.722;8.612;2022-12-18T11:40:25;36.10;;;14.43;;
5722;SDS011;2886;49.722;8.612;2022-12-18T11:43:00;35.67;;;16.00;;
5722;SDS011;2886;49.722;8.612;2022-12-18T11:45:35;41.80;;;18.30;;
5722;SDS011;2886;49.722;8.612;2022-12-18T11:50:53;30.67;;;13.60;;
5722;SDS011;2886;49.722;8.612;2022-12-18T11:53:20;27.53;;;14.30;;
5722;SDS011;2886;49.722;8.612;2022-12-18T11:55:53;31.13;;;14.40;;
5722;SDS011;2886;49.722;8.612;2022-12-18T12:01:25;28.90;;;12.90;;
5722;SDS011;2886;49.722;8.612;2022-12-18T12:15:22;33.87;;;17.27;;
5722;SDS011;2886;49.722;8.612;2022-12-18T12:23:38;30.20;;;13.00;;
5722;SDS011;2886;49.722;8.612;2022-12-18T12:26:39;23.17;;;12.73;;
5722;SDS011;2886;49.722;8.612;2022-12-18T12:29:35;25.60;;;11.40;;
5722;SDS011;2886;49.722;8.612;2022-12-18T12:32:15;24.60;;;12.23;;
5722;SDS011;2886;49.722;8.612;2022-12-18T12:35:24;28.70;;;12.93;;
5722;SDS011;2886;49.722;8.612;2022-12-18T12:40:32;32.90;;;13.47;;
5722;SDS011;2886;49.722;8.612;2022-12-18T12:45:54;26.70;;;12.40;;
5722;SDS011;2886;49.722;8.612;2022-12-18T12:51:04;25.73;;;12.50;;
5722;SDS011;2886;49.722;8.612;2022-12-18T12:53:44;24.20;;;12.43;;
5722;SDS011;2886;49.722;8.612;2022-12-18T12:56:12;25.23;;;12.27;;
5722;SDS011;2886;49.722;8.612;2022-12-18T13:04:18;29.10;;;13.07;;
5722;SDS011;2886;49.722;8.612;2022-12-18T13:07:01;46.50;;;19.47;;
5722;SDS011;2886;49.722;8.612;2022-12-18T13:09:35;28.30;;;13.70;;
5722;SDS011;2886;49.722;8.612;2022-12-18T13:12:56;28.83;;;11.10;;
5722;SDS011;2886;49.722;8.612;2022-12-18T13:15:44;22.57;;;11.13;;
5722;SDS011;2886;49.722;8.612;2022-12-18T13:21:13;26.60;;;12.63;;
5722;SDS011;2886;49.722;8.612;2022-12-18T13:23:40;29.40;;;13.40;;
5722;SDS011;2886;49.722;8.612;2022-12-18T13:30:59;29.90;;;13.77;;
5722;SDS011;2886;49.722;8.612;2022-12-18T13:41:40;29.20;;;13.10;;
5722;SDS011;2886;49.722;8.612;2022-12-18T13:44:20;34.57;;;15.37;;
5722;SDS011;2886;49.722;8.612;2022-12-18T13:46:57;32.93;;;12.70;;
5722;SDS011;2886;49.722;8.612;2022-12-18T13:49:31;30.87;;;12.50;;
5722;SDS011;2886;49.722;8.612;2022-12-18T13:52:22;28.67;;;14.70;;
5722;SDS011;2886;49.722;8.612;2022-12-18T13:54:54;31.50;;;13.20;;
5722;SDS011;2886;49.722;8.612;2022-12-18T13:57:32;26.07;;;13.57;;
5722;SDS011;2886;49.722;8.612;2022-12-18T14:00:44;32.97;;;16.07;;
5722;SDS011;2886;49.722;8.612;2022-12-18T14:02:56;32.33;;;13.60;;
5722;SDS011;2886;49.722;8.612;2022-12-18T14:05:34;33.53;;;13.80;;
5722;SDS011;2886;49.722;8.612;2022-12-18T14:08:11;34.13;;;13.63;;
5722;SDS011;2886;49.722;8.612;2022-12-18T14:10:40;30.97;;;13.73;;
5722;SDS011;2886;49.722;8.612;2022-12-18T14:13:09;31.67;;;14.47;;
5722;SDS011;2886;49.722;8.612;2022-12-18T14:15:39;43.10;;;15.00;;
5722;SDS011;2886;49.722;8.612;2022-12-18T14:20:54;29.00;;;13.33;;
5722;SDS011;2886;49.722;8.612;2022-12-18T14:23:32;33.83;;;13.97;;
5722;SDS011;2886;49.722;8.612;2022-12-18T14:26:22;30.33;;;15.10;;
5722;SDS011;2886;49.722;8.612;2022-12-18T14:28:48;36.77;;;14.97;;
5722;SDS011;2886;49.722;8.612;2022-12-18T14:31:21;30.40;;;14.40;;
5722;SDS011;2886;49.722;8.612;2022-12-18T14:33:48;24.63;;;12.80;;
5722;SDS011;2886;49.722;8.612;2022-12-18T14:36:18;29.30;;;14.10;;
5722;SDS011;2886;49.722;8.612;2022-12-18T14:38:51;26.10;;;12.00;;
5722;SDS011;2886;49.722;8.612;2022-12-18T14:41:21;31.80;;;12.83;;
5722;SDS011;2886;49.722;8.612;2022-12-18T14:43:49;32.77;;;13.07;;
5722;SDS011;2886;49.722;8.612;2022-12-18T14:46:35;26.90;;;13.27;;
5722;SDS011;2886;49.722;8.612;2022-12-18T14:49:03;23.93;;;12.93;;
5722;SDS011;2886;49.722;8.612;2022-12-18T14:51:33;27.77;;;13.30;;
5722;SDS011;2886;49.722;8.612;2022-12-18T14:54:02;26.43;;;12.80;;
5722;SDS011;2886;49.722;8.612;2022-12-18T14:56:36;28.30;;;13.50;;
5722;SDS011;2886;49.722;8.612;2022-12-18T14:59:13;29.33;;;14.80;;
5722;SDS011;2886;49.722;8.612;2022-12-18T15:04:29;39.10;;;16.07;;
5722;SDS011;2886;49.722;8.612;2022-12-18T15:10:00;25.23;;;13.07;;
5722;SDS011;2886;49.722;8.612;2022-12-18T15:12:36;29.10;;;12.60;;
5722;SDS011;2886;49.722;8.612;2022-12-18T15:20:58;28.87;;;14.27;;
5722;SDS011;2886;49.722;8.612;2022-12-18T15:23:28;33.73;;;14.70;;
5722;SDS011;2886;49.722;8.612;2022-12-18T15:26:10;29.40;;;12.57;;
5722;SDS011;2886;49.722;8.612;2022-12-18T15:34:22;37.33;;;16.10;;
5722;SDS011;2886;49.722;8.612;2022-12-18T15:36:24;32.67;;;13.13;;
5722;SDS011;2886;49.722;8.612;2022-12-18T15:38:55;27.73;;;13.67;;
5722;SDS011;2886;49.722;8.612;2022-12-18T15:41:21;31.03;;;14.03;;
5722;SDS011;2886;49.722;8.612;2022-12-18T15:43:48;32.43;;;14.40;;
5722;SDS011;2886;49.722;8.612;2022-12-18T15:46:16;45.90;;;18.40;;
5722;SDS011;2886;49.722;8.612;2022-12-18T15:48:47;42.37;;;17.23;;
5722;SDS011;2886;49.722;8.612;2022-12-18T15:51:33;41.23;;;18.37;;
5722;SDS011;2886;49.722;8.612;2022-12-18T15:54:02;40.83;;;16.30;;
5722;SDS011;2886;49.722;8.612;2022-12-18T15:56:30;46.90;;;18.53;;
5722;SDS011;2886;49.722;8.612;2022-12-18T15:59:15;32.83;;;14.73;;
5722;SDS011;2886;49.722;8.612;2022-12-18T16:01:44;37.40;;;15.03;;
5722;SDS011;2886;49.722;8.612;2022-12-18T16:04:13;40.30;;;15.00;;
5722;SDS011;2886;49.722;8.612;2022-12-18T16:06:41;33.70;;;14.83;;
5722;SDS011;2886;49.722;8.612;2022-12-18T16:09:07;32.23;;;13.27;;
5722;SDS011;2886;49.722;8.612;2022-12-18T16:11:33;27.77;;;15.10;;
5722;SDS011;2886;49.722;8.612;2022-12-18T16:14:18;39.17;;;16.80;;
5722;SDS011;2886;49.722;8.612;2022-12-18T16:16:46;32.70;;;14.83;;
5722;SDS011;2886;49.722;8.612;2022-12-18T16:19:14;32.57;;;16.47;;
5722;SDS011;2886;49.722;8.612;2022-12-18T16:21:40;24.97;;;14.97;;
5722;SDS011;2886;49.722;8.612;2022-12-18T16:24:08;31.83;;;14.57;;
5722;SDS011;2886;49.722;8.612;2022-12-18T16:26:39;40.97;;;17.90;;
5722;SDS011;2886;49.722;8.612;2022-12-18T16:31:58;33.87;;;16.93;;
5722;SDS011;2886;49.722;8.612;2022-12-18T16:34:26;40.60;;;17.97;;
5722;SDS011;2886;49.722;8.612;2022-12-18T16:36:57;41.83;;;20.20;;
5722;SDS011;2886;49.722;8.612;2022-12-18T16:39:25;36.17;;;16.40;;
5722;SDS011;2886;49.722;8.612;2022-12-18T16:41:51;33.73;;;16.87;;
5722;SDS011;2886;49.722;8.612;2022-12-18T16:44:17;42.43;;;17.57;;
5722;SDS011;2886;49.722;8.612;2022-12-18T16:46:46;46.90;;;19.60;;
5722;SDS011;2886;49.722;8.612;2022-12-18T16:49:13;35.90;;;17.17;;
5722;SDS011;2886;49.722;8.612;2022-12-18T16:51:39;40.97;;;18.47;;
5722;SDS011;2886;49.722;8.612;2022-12-18T16:54:05;40.33;;;18.53;;
5722;SDS011;2886;49.722;8.612;2022-12-18T16:56:31;42.07;;;18.73;;
5722;SDS011;2886;49.722;8.612;2022-12-18T16:58:57;41.70;;;18.90;;
5722;SDS011;2886;49.722;8.612;2022-12-18T17:01:25;47.83;;;18.83;;
5722;SDS011;2886;49.722;8.612;2022-12-18T17:03:54;54.57;;;19.70;;
5722;SDS011;2886;49.722;8.612;2022-12-18T17:06:29;42.57;;;20.00;;
5722;SDS011;2886;49.722;8.612;2022-12-18T17:08:57;47.30;;;21.67;;
5722;SDS011;2886;49.722;8.612;2022-12-18T17:11:29;49.27;;;21.47;;
5722;SDS011;2886;49.722;8.612;2022-12-18T17:13:56;51.00;;;20.67;;
5722;SDS011;2886;49.722;8.612;2022-12-18T17:16:22;74.37;;;31.13;;